Agency, Iowa
Current Conditions -  °F | °C
As of 3:53 AM on Saturday 20 Dec 2014 (Local Time) from KOTM Reporting Station
Haze Haze  
Wind Chill: 23°   Ceiling: 700
Heat Index: 30°   Visibility: 5mi
Dew Point: 28°   Wind: 7mph
Humidity: 92%   Direction: 140°SE
Pressure: 30.2"   Gusts: NA
Location:  41°N, 92.31°W
Report Text: KOTM 200953Z AUTO 14006KT 5SM BR OVC007 M01/M02 A3020 RMK AO2 SLP234 T10111022
Loading
Personal Weather Stations






























Interactive Weather Map New forecast layout! Learn more

10-Day Weather Forecast

Advertisements
Track Severe Weather on mobile